Woodland Addition, Illinois
Current Conditions -  °F | °C
As of 8:35 PM on Saturday 22 Nov 2014 (Local Time) from KVYS Reporting Station
Overcast Overcast  
Wind Chill: 53°   Ceiling: 2300
Heat Index: 53°   Visibility: 10mi
Dew Point: 46°   Wind: 20mph
Humidity: 80%   Direction: 200°SSW
Pressure: 29.86"   Gusts: NA
Location:  41.4349°N, 88.8687°W
Report Text: KVYS 230235Z AUTO 20017KT 10SM OVC023 11/08 A2986 RMK AO2 T01140080
Loading
Personal Weather Stations






























Interactive Weather Map New forecast layout! Learn more

10-Day Weather Forecast

Advertisements
Track Severe Weather on mobile